Time;durP1;ratioP1;P1;durP2;ratioP2;P2;SDS_P1;SDS_P2;PMS_P1;PMS_P2;Temp;Humidity;BMP_temperature;BMP_pressure;BME280_temperature;BME280_humidity;BME280_pressure;Samples;Min_cycle;Max_cycle;Signal;HPM_P1;HPM_P2
2023/08/19 00:03:19;;;;;;;;;;;23.80;73.50;;;;;;10159438;28;93717;-66
2023/08/19 00:08:21;;;;;;;;;;;23.80;73.40;;;;;;10146465;28;94435;-65
2023/08/19 00:13:23;;;;;;;;;;;23.80;73.40;;;;;;10136249;28;93807;-65
2023/08/19 00:18:25;;;;;;;;;;;23.80;73.40;;;;;;10145050;28;95836;-66
2023/08/19 00:23:27;;;;;;;;;;;23.80;73.40;;;;;;10132767;28;95309;-66
2023/08/19 00:28:30;;;;;;;;;;;23.80;73.30;;;;;;10119519;28;93524;-65
2023/08/19 00:33:32;;;;;;;;;;;23.80;73.30;;;;;;10126529;28;94585;-66
2023/08/19 00:38:33;;;;;;;;;;;23.80;73.20;;;;;;10135370;28;94777;-65
2023/08/19 00:43:37;;;;;;;;;;;23.80;74.20;;;;;;10140451;28;94474;-65
2023/08/19 00:48:39;;;;;;;;;;;23.80;73.20;;;;;;10127441;28;93426;-66
2023/08/19 00:53:41;;;;;;;;;;;23.80;73.20;;;;;;10147870;28;92124;-66
2023/08/19 00:58:43;;;;;;;;;;;23.80;73.10;;;;;;10152945;28;94467;-66
2023/08/19 01:03:45;;;;;;;;;;;23.80;73.10;;;;;;10145006;28;94522;-66
2023/08/19 01:08:55;;;;;;;;;;;23.80;73.10;;;;;;10137676;28;96444;-66
2023/08/19 01:14:08;;;;;;;;;;;23.80;73.10;;;;;;10150292;28;93868;-66
2023/08/19 01:19:13;;;;;;;;;;;23.80;73.10;;;;;;10132122;28;94417;-66
2023/08/19 01:24:17;;;;;;;;;;;23.80;73.20;;;;;;10165599;28;94428;-66
2023/08/19 01:29:19;;;;;;;;;;;23.80;73.20;;;;;;10124439;28;94028;-65
2023/08/19 01:34:22;;;;;;;;;;;23.80;73.20;;;;;;10149023;28;93799;-65
2023/08/19 01:39:24;;;;;;;;;;;23.80;73.20;;;;;;10131507;28;94305;-66
2023/08/19 01:44:26;;;;;;;;;;;23.80;73.20;;;;;;10150287;28;92824;-65
2023/08/19 01:49:29;;;;;;;;;;;23.80;73.30;;;;;;10150529;28;93785;-65
2023/08/19 01:54:31;;;;;;;;;;;23.70;73.20;;;;;;10138960;28;94449;-65
2023/08/19 01:59:33;;;;;;;;;;;23.80;73.40;;;;;;10140300;28;95844;-65
2023/08/19 02:04:35;;;;;;;;;;;23.70;73.30;;;;;;10136543;28;94404;-66
2023/08/19 02:09:37;;;;;;;;;;;23.70;73.40;;;;;;10137158;28;94614;-66
2023/08/19 02:14:39;;;;;;;;;;;23.70;73.30;;;;;;10161216;28;95004;-65
2023/08/19 02:19:41;;;;;;;;;;;23.70;73.30;;;;;;10142915;28;93419;-65
2023/08/19 02:24:43;;;;;;;;;;;23.70;73.40;;;;;;10147285;28;94442;-66
2023/08/19 02:29:45;;;;;;;;;;;23.70;73.40;;;;;;10150275;28;96871;-65
2023/08/19 02:34:47;;;;;;;;;;;23.70;73.40;;;;;;10156074;28;95378;-66
2023/08/19 02:39:49;;;;;;;;;;;23.70;73.30;;;;;;10151203;28;94505;-65
2023/08/19 02:44:50;;;;;;;;;;;23.60;73.30;;;;;;10154262;28;94787;-66
2023/08/19 02:49:52;;;;;;;;;;;23.60;73.30;;;;;;10139212;28;96866;-65
2023/08/19 02:54:54;;;;;;;;;;;23.60;73.70;;;;;;10119748;28;94832;-65
2023/08/19 02:59:56;;;;;;;;;;;23.60;73.30;;;;;;10139992;28;93530;-65
2023/08/19 03:04:58;;;;;;;;;;;23.60;73.30;;;;;;10151606;28;94413;-65
2023/08/19 03:10:00;;;;;;;;;;;23.60;73.40;;;;;;10139197;28;93568;-65
2023/08/19 03:15:03;;;;;;;;;;;23.60;73.30;;;;;;10134457;28;92972;-66
2023/08/19 03:20:05;;;;;;;;;;;23.60;73.40;;;;;;10140570;28;94647;-65
2023/08/19 03:25:07;;;;;;;;;;;23.60;73.30;;;;;;10142337;28;93743;-66
2023/08/19 03:30:09;;;;;;;;;;;23.60;73.40;;;;;;10147755;28;93915;-65
2023/08/19 03:35:11;;;;;;;;;;;23.60;73.40;;;;;;10152206;28;93647;-66
2023/08/19 03:40:13;;;;;;;;;;;23.60;73.40;;;;;;10139446;28;96388;-66
2023/08/19 03:45:15;;;;;;;;;;;23.60;73.40;;;;;;10141985;28;94181;-66
2023/08/19 03:50:17;;;;;;;;;;;23.60;73.40;;;;;;10130989;28;94064;-66
2023/08/19 03:55:19;;;;;;;;;;;23.60;73.40;;;;;;10149343;28;94199;-65
2023/08/19 04:00:21;;;;;;;;;;;23.60;73.40;;;;;;10138071;28;94548;-65
2023/08/19 04:05:22;;;;;;;;;;;23.60;73.40;;;;;;10161254;28;93372;-65
2023/08/19 04:10:24;;;;;;;;;;;23.60;73.30;;;;;;10126703;28;93111;-65
2023/08/19 04:15:29;;;;;;;;;;;23.60;73.30;;;;;;10138394;28;92790;-65
2023/08/19 04:20:31;;;;;;;;;;;23.60;73.30;;;;;;10119883;28;94643;-66
2023/08/19 04:25:32;;;;;;;;;;;23.60;73.30;;;;;;10135681;28;94395;-66
2023/08/19 04:30:36;;;;;;;;;;;23.60;73.30;;;;;;10135057;28;96946;-65
2023/08/19 04:35:37;;;;;;;;;;;23.60;73.30;;;;;;10138720;28;94577;-65
2023/08/19 04:40:40;;;;;;;;;;;23.60;73.30;;;;;;10145590;28;94434;-66
2023/08/19 04:51:03;;;;;;;;;;;23.60;73.30;;;;;;10393295;23;95802;-65
2023/08/19 04:56:04;;;;;;;;;;;23.70;73.30;;;;;;10174887;28;93831;-58
2023/08/19 05:01:06;;;;;;;;;;;23.60;73.20;;;;;;10189892;28;94005;-58
2023/08/19 05:06:08;;;;;;;;;;;23.70;73.20;;;;;;10193462;28;92901;-58
2023/08/19 05:11:10;;;;;;;;;;;23.70;73.10;;;;;;10186741;28;94409;-57
2023/08/19 05:16:12;;;;;;;;;;;23.60;73.00;;;;;;10189389;28;94741;-57
2023/08/19 05:21:14;;;;;;;;;;;23.70;73.20;;;;;;10185892;28;96807;-58
2023/08/19 05:26:17;;;;;;;;;;;23.70;73.00;;;;;;10190663;28;94434;-57
2023/08/19 05:31:19;;;;;;;;;;;23.70;73.30;;;;;;10180240;28;94744;-57
2023/08/19 05:36:21;;;;;;;;;;;23.70;73.30;;;;;;10181445;28;94468;-57
2023/08/19 05:41:22;;;;;;;;;;;23.70;73.20;;;;;;10182499;28;96982;-57
2023/08/19 05:46:24;;;;;;;;;;;23.70;73.30;;;;;;10196888;28;94406;-56
2023/08/19 05:51:26;;;;;;;;;;;23.70;73.30;;;;;;10191956;28;94583;-56
2023/08/19 05:56:29;;;;;;;;;;;23.70;73.30;;;;;;10192116;28;92945;-56
2023/08/19 06:01:30;;;;;;;;;;;23.70;73.20;;;;;;10192720;28;93479;-55
2023/08/19 06:06:32;;;;;;;;;;;23.70;73.40;;;;;;10192934;28;94578;-56
2023/08/19 06:11:34;;;;;;;;;;;23.80;73.40;;;;;;10194201;28;98797;-56
2023/08/19 06:16:35;;;;;;;;;;;23.80;73.90;;;;;;10195109;28;94458;-56
2023/08/19 06:21:37;;;;;;;;;;;23.80;73.50;;;;;;10189435;28;94485;-57
2023/08/19 06:26:39;;;;;;;;;;;23.80;73.90;;;;;;10194655;28;94939;-56
2023/08/19 06:31:41;;;;;;;;;;;23.90;74.20;;;;;;10185010;28;94447;-56
2023/08/19 06:36:45;;;;;;;;;;;23.90;74.10;;;;;;10189364;28;93493;-56
2023/08/19 06:41:51;;;;;;;;;;;23.90;73.90;;;;;;10191972;28;94159;-57
2023/08/19 06:46:55;;;;;;;;;;;23.90;73.90;;;;;;10188923;28;92863;-56
2023/08/19 06:51:56;;;;;;;;;;;24.00;73.80;;;;;;10192677;28;95152;-56
2023/08/19 06:57:06;;;;;;;;;;;24.00;73.60;;;;;;10184826;28;94504;-56
2023/08/19 07:02:10;;;;;;;;;;;24.00;73.60;;;;;;10174727;28;96860;-57
2023/08/19 07:07:13;;;;;;;;;;;23.90;73.40;;;;;;10193056;28;94847;-56
2023/08/19 07:12:15;;;;;;;;;;;23.90;73.40;;;;;;10194871;28;94641;-56
2023/08/19 07:17:19;;;;;;;;;;;23.90;73.50;;;;;;10194189;28;93441;-56
2023/08/19 07:22:23;;;;;;;;;;;23.90;73.30;;;;;;10180812;28;93391;-57
2023/08/19 07:27:25;;;;;;;;;;;23.90;73.30;;;;;;10182252;28;93872;-57
2023/08/19 07:32:28;;;;;;;;;;;23.90;73.30;;;;;;10194172;28;93906;-56
2023/08/19 07:37:31;;;;;;;;;;;23.90;73.20;;;;;;10193703;28;93357;-56
2023/08/19 07:42:33;;;;;;;;;;;24.00;73.20;;;;;;10193251;28;93657;-56
2023/08/19 07:47:35;;;;;;;;;;;24.00;73.00;;;;;;10193047;28;94460;-55
2023/08/19 07:52:37;;;;;;;;;;;24.00;73.00;;;;;;10203036;28;96365;-56
2023/08/19 07:57:39;;;;;;;;;;;24.00;72.90;;;;;;10207060;28;94442;-56
2023/08/19 08:02:41;;;;;;;;;;;24.00;72.90;;;;;;10193502;28;94352;-56
2023/08/19 08:07:43;;;;;;;;;;;24.00;72.80;;;;;;10181425;28;94346;-56
2023/08/19 08:12:44;;;;;;;;;;;24.00;72.80;;;;;;10193660;28;93794;-56
2023/08/19 08:17:46;;;;;;;;;;;24.00;72.70;;;;;;10179649;28;94759;-56
2023/08/19 08:22:48;;;;;;;;;;;24.00;72.60;;;;;;10192133;28;93752;-56
2023/08/19 08:27:50;;;;;;;;;;;24.00;72.60;;;;;;10176634;28;93816;-57
2023/08/19 08:32:52;;;;;;;;;;;24.00;72.50;;;;;;10187262;28;94899;-55
2023/08/19 08:37:54;;;;;;;;;;;24.00;72.50;;;;;;10192892;28;93755;-56
2023/08/19 08:42:56;;;;;;;;;;;24.00;72.40;;;;;;10188536;28;95833;-56
2023/08/19 08:48:00;;;;;;;;;;;24.10;72.40;;;;;;10180364;28;93558;-56
2023/08/19 08:53:02;;;;;;;;;;;24.10;72.30;;;;;;10175334;28;93784;-60
2023/08/19 08:58:03;;;;;;;;;;;24.00;72.40;;;;;;10179084;28;94713;-56
2023/08/19 09:03:06;;;;;;;;;;;24.00;72.20;;;;;;10192225;28;93554;-56
2023/08/19 09:08:13;;;;;;;;;;;24.00;72.20;;;;;;10192370;28;94499;-56
2023/08/19 09:13:19;;;;;;;;;;;24.00;72.20;;;;;;10197798;28;95010;-58
2023/08/19 09:18:21;;;;;;;;;;;24.00;72.20;;;;;;10183652;28;92702;-57
2023/08/19 09:23:28;;;;;;;;;;;24.00;72.20;;;;;;10205813;28;94396;-57
2023/08/19 09:28:33;;;;;;;;;;;24.00;72.20;;;;;;10193354;28;94851;-56
2023/08/19 09:33:42;;;;;;;;;;;24.00;72.20;;;;;;10214810;28;96165;-56
2023/08/19 09:38:43;;;;;;;;;;;24.00;72.10;;;;;;10189209;28;93533;-56
2023/08/19 09:43:47;;;;;;;;;;;24.10;72.10;;;;;;10197926;28;93416;-56
2023/08/19 09:48:56;;;;;;;;;;;24.10;72.20;;;;;;10202061;28;93477;-56
2023/08/19 09:54:07;;;;;;;;;;;24.10;72.10;;;;;;10198246;28;93704;-56
2023/08/19 09:59:09;;;;;;;;;;;24.10;72.20;;;;;;10196494;28;94658;-56
2023/08/19 10:04:11;;;;;;;;;;;24.10;72.10;;;;;;10197531;28;93870;-56
2023/08/19 10:09:15;;;;;;;;;;;24.10;72.00;;;;;;10198141;28;93436;-55
2023/08/19 10:14:22;;;;;;;;;;;24.20;72.10;;;;;;10195561;28;95712;-56
2023/08/19 10:19:24;;;;;;;;;;;24.30;72.10;;;;;;10200267;28;94579;-56
2023/08/19 10:24:26;;;;;;;;;;;24.40;71.70;;;;;;10190530;28;97210;-56
2023/08/19 10:29:28;;;;;;;;;;;24.40;71.60;;;;;;10182233;28;94909;-56
2023/08/19 10:34:30;;;;;;;;;;;24.40;71.60;;;;;;10205456;28;94823;-56
2023/08/19 10:39:32;;;;;;;;;;;24.40;71.60;;;;;;10203745;28;94363;-56
2023/08/19 10:44:33;;;;;;;;;;;24.40;71.60;;;;;;10192834;28;94566;-56
2023/08/19 10:49:36;;;;;;;;;;;24.40;71.60;;;;;;10207949;28;92982;-56
2023/08/19 10:54:42;;;;;;;;;;;24.30;71.60;;;;;;10198846;28;94290;-56
2023/08/19 10:59:44;;;;;;;;;;;24.30;71.80;;;;;;10195424;28;93823;-55
2023/08/19 11:04:48;;;;;;;;;;;24.30;71.80;;;;;;10195083;28;93659;-55
2023/08/19 11:09:50;;;;;;;;;;;24.30;72.00;;;;;;10179810;28;93443;-56
2023/08/19 11:14:55;;;;;;;;;;;24.30;72.00;;;;;;10192244;28;96593;-56
2023/08/19 11:19:58;;;;;;;;;;;24.30;72.00;;;;;;10192467;28;93532;-56
2023/08/19 11:25:00;;;;;;;;;;;24.30;72.00;;;;;;10178249;28;94577;-56
2023/08/19 11:30:02;;;;;;;;;;;24.40;72.00;;;;;;10193449;28;93541;-56
2023/08/19 11:35:05;;;;;;;;;;;24.40;71.90;;;;;;10189344;28;93445;-56
2023/08/19 11:40:08;;;;;;;;;;;24.40;71.90;;;;;;10200521;28;95839;-57
2023/08/19 11:45:15;;;;;;;;;;;24.40;71.90;;;;;;10193610;28;94319;-56
2023/08/19 11:50:19;;;;;;;;;;;24.40;71.80;;;;;;10190415;28;93644;-56
2023/08/19 11:55:25;;;;;;;;;;;24.40;71.80;;;;;;10190168;28;94800;-55
2023/08/19 12:00:27;;;;;;;;;;;24.40;71.60;;;;;;10171996;28;94539;-56
2023/08/19 12:05:30;;;;;;;;;;;24.40;71.60;;;;;;10188362;28;97196;-56
2023/08/19 12:10:42;;;;;;;;;;;24.40;71.60;;;;;;10192835;28;93781;-55
2023/08/19 12:15:44;;;;;;;;;;;24.40;71.50;;;;;;10204858;28;94398;-55
2023/08/19 12:20:47;;;;;;;;;;;24.50;71.60;;;;;;10193458;28;94494;-56
2023/08/19 12:25:50;;;;;;;;;;;24.50;71.40;;;;;;10191316;28;94462;-55
2023/08/19 12:30:52;;;;;;;;;;;24.50;71.40;;;;;;10188791;28;94070;-55
2023/08/19 12:35:54;;;;;;;;;;;24.50;71.40;;;;;;10192558;28;94858;-55
2023/08/19 12:41:09;;;;;;;;;;;24.50;71.20;;;;;;10193649;28;93653;-55
2023/08/19 12:46:11;;;;;;;;;;;24.50;71.10;;;;;;10197643;28;93573;-56
2023/08/19 12:51:13;;;;;;;;;;;24.50;71.00;;;;;;10194243;28;93452;-55
2023/08/19 12:56:15;;;;;;;;;;;24.50;71.10;;;;;;10190071;28;97016;-55
2023/08/19 13:01:20;;;;;;;;;;;24.50;71.30;;;;;;10196677;28;93514;-55
2023/08/19 13:06:22;;;;;;;;;;;24.50;71.30;;;;;;10197885;28;93351;-55
2023/08/19 13:11:24;;;;;;;;;;;24.50;71.40;;;;;;10199863;28;94352;-56
2023/08/19 13:16:25;;;;;;;;;;;24.60;71.60;;;;;;10179113;28;93479;-56
2023/08/19 13:21:27;;;;;;;;;;;24.60;71.70;;;;;;10189584;28;94398;-55
2023/08/19 13:26:29;;;;;;;;;;;24.60;71.60;;;;;;10198773;28;93501;-56
2023/08/19 13:31:31;;;;;;;;;;;24.60;71.60;;;;;;10194770;28;93757;-56
2023/08/19 13:36:33;;;;;;;;;;;24.60;71.70;;;;;;10191985;28;94717;-56
2023/08/19 13:41:34;;;;;;;;;;;24.50;71.70;;;;;;10179717;28;93811;-56
2023/08/19 13:46:37;;;;;;;;;;;24.50;72.00;;;;;;10194031;28;96278;-55
2023/08/19 13:51:39;;;;;;;;;;;24.50;72.20;;;;;;10195161;28;94641;-56
2023/08/19 13:56:48;;;;;;;;;;;24.50;72.30;;;;;;10198259;28;94460;-56
2023/08/19 14:01:50;;;;;;;;;;;24.50;72.30;;;;;;10197541;28;93449;-56
2023/08/19 14:06:52;;;;;;;;;;;24.50;72.40;;;;;;10197729;28;94447;-56
2023/08/19 14:11:54;;;;;;;;;;;24.50;72.40;;;;;;10194421;28;93512;-56
2023/08/19 14:16:55;;;;;;;;;;;24.50;72.30;;;;;;10212352;28;94909;-70
2023/08/19 14:21:57;;;;;;;;;;;24.40;72.30;;;;;;10201454;28;92844;-67
2023/08/19 14:27:00;;;;;;;;;;;24.40;72.30;;;;;;10210628;28;94980;-63
2023/08/19 14:32:01;;;;;;;;;;;24.40;72.30;;;;;;10205629;28;94418;-56
2023/08/19 14:37:05;;;;;;;;;;;24.40;72.30;;;;;;10185812;28;95808;-58
2023/08/19 14:42:07;;;;;;;;;;;24.40;72.10;;;;;;10193952;28;93663;-56
2023/08/19 14:47:09;;;;;;;;;;;24.40;72.20;;;;;;10194574;28;94916;-56
2023/08/19 14:52:15;;;;;;;;;;;24.50;72.40;;;;;;10191258;28;93444;-56
2023/08/19 14:57:18;;;;;;;;;;;24.50;72.30;;;;;;10195883;28;96012;-57
2023/08/19 15:02:25;;;;;;;;;;;24.50;72.20;;;;;;10192887;28;93778;-56
2023/08/19 15:07:27;;;;;;;;;;;24.50;72.20;;;;;;10207058;28;95001;-55
2023/08/19 15:12:30;;;;;;;;;;;24.50;72.20;;;;;;10190197;28;93705;-56
2023/08/19 15:17:32;;;;;;;;;;;24.50;71.60;;;;;;10206898;28;94707;-56
2023/08/19 15:22:34;;;;;;;;;;;24.50;71.90;;;;;;10192142;28;94436;-55
2023/08/19 15:27:38;;;;;;;;;;;24.60;72.10;;;;;;10189525;28;97309;-56
2023/08/19 15:32:45;;;;;;;;;;;24.50;72.00;;;;;;10194427;28;93500;-56
2023/08/19 15:37:48;;;;;;;;;;;24.60;72.30;;;;;;10194600;28;93814;-56
2023/08/19 15:42:50;;;;;;;;;;;24.60;72.20;;;;;;10190289;28;94044;-56
2023/08/19 15:47:52;;;;;;;;;;;24.60;72.30;;;;;;10189183;28;94444;-55
2023/08/19 15:52:55;;;;;;;;;;;24.50;72.30;;;;;;10179187;28;94681;-56
2023/08/19 15:57:57;;;;;;;;;;;24.50;72.00;;;;;;10193492;28;94233;-56
2023/08/19 16:02:59;;;;;;;;;;;24.50;71.80;;;;;;10190557;28;93830;-56
2023/08/19 16:08:01;;;;;;;;;;;24.50;72.00;;;;;;10192104;28;94530;-56
2023/08/19 16:13:03;;;;;;;;;;;24.50;71.80;;;;;;10186512;28;94028;-57
2023/08/19 16:18:05;;;;;;;;;;;24.50;71.60;;;;;;10191411;28;97147;-55
2023/08/19 16:23:07;;;;;;;;;;;24.40;71.60;;;;;;10193089;28;93553;-56
2023/08/19 16:28:09;;;;;;;;;;;24.40;71.60;;;;;;10191724;28;94524;-56
2023/08/19 16:33:11;;;;;;;;;;;24.40;71.80;;;;;;10189295;28;94799;-56
2023/08/19 16:38:13;;;;;;;;;;;24.40;71.70;;;;;;10192329;28;93550;-56
2023/08/19 16:43:15;;;;;;;;;;;24.40;71.70;;;;;;10203504;28;93454;-56
2023/08/19 16:48:18;;;;;;;;;;;24.50;71.80;;;;;;10191467;28;95103;-56
2023/08/19 16:53:21;;;;;;;;;;;24.40;71.60;;;;;;10187362;28;93695;-56
2023/08/19 16:58:24;;;;;;;;;;;24.40;71.70;;;;;;10196918;28;94964;-56
2023/08/19 17:03:26;;;;;;;;;;;24.40;71.80;;;;;;10189752;28;94415;-56
2023/08/19 17:08:29;;;;;;;;;;;24.40;71.80;;;;;;10188346;28;96345;-56
2023/08/19 17:13:31;;;;;;;;;;;24.40;71.70;;;;;;10187455;28;93678;-56
2023/08/19 17:18:34;;;;;;;;;;;24.40;71.10;;;;;;10183254;28;95037;-56
2023/08/19 17:23:37;;;;;;;;;;;24.40;70.60;;;;;;10191717;28;94600;-56
2023/08/19 17:28:38;;;;;;;;;;;24.40;69.80;;;;;;10173206;28;94492;-56
2023/08/19 17:33:40;;;;;;;;;;;24.40;68.50;;;;;;10192725;28;93255;-56
2023/08/19 17:38:42;;;;;;;;;;;24.40;67.90;;;;;;10195937;28;94427;-56
2023/08/19 17:43:45;;;;;;;;;;;24.30;67.30;;;;;;10197817;28;93465;-56
2023/08/19 17:48:48;;;;;;;;;;;24.30;66.70;;;;;;10195964;28;93731;-56
2023/08/19 17:53:50;;;;;;;;;;;24.40;66.60;;;;;;10196775;28;94378;-56
2023/08/19 17:58:52;;;;;;;;;;;24.40;66.50;;;;;;10184516;28;96951;-55
2023/08/19 18:03:54;;;;;;;;;;;24.30;66.10;;;;;;10201777;28;94830;-55
2023/08/19 18:08:56;;;;;;;;;;;24.30;65.90;;;;;;10187483;28;94781;-55
2023/08/19 18:13:58;;;;;;;;;;;24.30;65.60;;;;;;10195758;28;94755;-55
2023/08/19 18:19:00;;;;;;;;;;;24.30;65.50;;;;;;10196184;28;95441;-54
2023/08/19 18:24:02;;;;;;;;;;;24.30;65.50;;;;;;10210852;28;94783;-55
2023/08/19 18:29:04;;;;;;;;;;;24.30;65.20;;;;;;10197118;28;93610;-55
2023/08/19 18:34:07;;;;;;;;;;;24.30;65.00;;;;;;10197130;28;94142;-55
2023/08/19 18:39:09;;;;;;;;;;;24.20;64.90;;;;;;10203652;28;94167;-56
2023/08/19 18:44:11;;;;;;;;;;;24.20;65.00;;;;;;10198903;28;93479;-56
2023/08/19 18:49:13;;;;;;;;;;;24.20;64.90;;;;;;10193784;28;96872;-60
2023/08/19 18:54:15;;;;;;;;;;;24.20;64.90;;;;;;10193476;28;93459;-56
2023/08/19 18:59:18;;;;;;;;;;;24.20;64.80;;;;;;10196286;28;93878;-56
2023/08/19 19:04:20;;;;;;;;;;;24.20;64.70;;;;;;10193584;28;93426;-56
2023/08/19 19:09:22;;;;;;;;;;;24.20;64.70;;;;;;10185883;28;93404;-56
2023/08/19 19:14:24;;;;;;;;;;;24.20;64.70;;;;;;10191960;28;94531;-56
2023/08/19 19:19:26;;;;;;;;;;;24.20;64.70;;;;;;10190859;28;93480;-56
2023/08/19 19:24:28;;;;;;;;;;;24.10;65.00;;;;;;10187200;28;93410;-56
2023/08/19 19:29:31;;;;;;;;;;;24.10;65.00;;;;;;10190147;28;94219;-56
2023/08/19 19:34:33;;;;;;;;;;;24.10;65.10;;;;;;10192656;28;93807;-56
2023/08/19 19:39:35;;;;;;;;;;;24.10;65.20;;;;;;10185510;28;95869;-55
2023/08/19 19:44:37;;;;;;;;;;;24.10;65.60;;;;;;10198227;28;93927;-56
2023/08/19 19:49:39;;;;;;;;;;;24.10;65.60;;;;;;10193022;28;93840;-55
2023/08/19 19:54:42;;;;;;;;;;;24.10;65.70;;;;;;10194464;28;93464;-55
2023/08/19 19:59:44;;;;;;;;;;;24.20;65.90;;;;;;10190305;28;94589;-54
2023/08/19 20:04:46;;;;;;;;;;;24.10;66.00;;;;;;10183196;28;94756;-55
2023/08/19 20:09:48;;;;;;;;;;;24.10;66.10;;;;;;10194876;28;94935;-55
2023/08/19 20:14:50;;;;;;;;;;;24.10;66.20;;;;;;10188103;28;92374;-55
2023/08/19 20:19:52;;;;;;;;;;;24.20;66.30;;;;;;10185269;28;94066;-55
2023/08/19 20:24:54;;;;;;;;;;;24.10;66.40;;;;;;10190623;28;94974;-55
2023/08/19 20:29:56;;;;;;;;;;;24.20;66.50;;;;;;10187862;28;95858;-56
2023/08/19 20:34:58;;;;;;;;;;;24.20;66.60;;;;;;10196445;28;94184;-55
2023/08/19 20:40:00;;;;;;;;;;;24.10;66.60;;;;;;10189781;28;93692;-55
2023/08/19 20:45:03;;;;;;;;;;;24.20;66.70;;;;;;10182639;28;93508;-54
2023/08/19 20:50:04;;;;;;;;;;;24.10;66.70;;;;;;10191709;28;94433;-54
2023/08/19 20:55:07;;;;;;;;;;;24.20;66.80;;;;;;10192829;28;93480;-55
2023/08/19 21:00:09;;;;;;;;;;;24.20;66.90;;;;;;10188613;28;94512;-55
2023/08/19 21:05:11;;;;;;;;;;;24.20;66.90;;;;;;10209093;28;93094;-55
2023/08/19 21:10:13;;;;;;;;;;;24.20;66.90;;;;;;10198395;28;94487;-55
2023/08/19 21:15:17;;;;;;;;;;;24.10;66.90;;;;;;10196754;28;94420;-55
2023/08/19 21:20:19;;;;;;;;;;;24.20;67.00;;;;;;10197008;28;96985;-55
2023/08/19 21:25:21;;;;;;;;;;;24.10;66.90;;;;;;10187881;28;94587;-55
2023/08/19 21:30:23;;;;;;;;;;;24.10;67.00;;;;;;10191250;28;93001;-56
2023/08/19 21:35:24;;;;;;;;;;;24.10;67.00;;;;;;10197085;28;94044;-55
2023/08/19 21:40:26;;;;;;;;;;;24.20;67.00;;;;;;10210735;28;94689;-55
2023/08/19 21:45:30;;;;;;;;;;;24.20;67.00;;;;;;10199007;28;93754;-55
2023/08/19 21:50:32;;;;;;;;;;;24.20;67.00;;;;;;10196044;28;94624;-54
2023/08/19 21:55:34;;;;;;;;;;;24.10;67.00;;;;;;10195185;28;93201;-55
2023/08/19 22:00:39;;;;;;;;;;;24.10;67.00;;;;;;10198663;28;94655;-55
2023/08/19 22:05:45;;;;;;;;;;;24.10;67.00;;;;;;10195250;28;94407;-56
2023/08/19 22:10:49;;;;;;;;;;;24.10;66.90;;;;;;10188101;28;95864;-56
2023/08/19 22:15:51;;;;;;;;;;;24.10;66.90;;;;;;10184409;28;93462;-57
2023/08/19 22:20:52;;;;;;;;;;;24.10;66.80;;;;;;10194721;28;93400;-56
2023/08/19 22:25:54;;;;;;;;;;;24.10;66.70;;;;;;10187220;28;94507;-56
2023/08/19 22:30:56;;;;;;;;;;;24.10;66.60;;;;;;10186022;28;94123;-56
2023/08/19 22:35:59;;;;;;;;;;;24.10;66.50;;;;;;10199691;28;94872;-56
2023/08/19 22:41:01;;;;;;;;;;;24.10;66.50;;;;;;10192431;28;94153;-56
2023/08/19 22:46:02;;;;;;;;;;;24.10;66.30;;;;;;10197199;28;93807;-56
2023/08/19 22:51:04;;;;;;;;;;;24.10;66.20;;;;;;10209663;28;93344;-56
2023/08/19 22:56:06;;;;;;;;;;;24.10;66.30;;;;;;10194987;28;94517;-56
2023/08/19 23:01:08;;;;;;;;;;;24.10;66.20;;;;;;10197732;28;96989;-56
2023/08/19 23:06:10;;;;;;;;;;;24.10;66.20;;;;;;10179290;28;93515;-56
2023/08/19 23:11:12;;;;;;;;;;;24.10;66.20;;;;;;10195105;28;93434;-55
2023/08/19 23:16:14;;;;;;;;;;;24.10;66.10;;;;;;10196007;28;94450;-55
2023/08/19 23:21:16;;;;;;;;;;;24.10;66.00;;;;;;10192724;28;93486;-55
2023/08/19 23:26:22;;;;;;;;;;;24.10;66.00;;;;;;10169308;28;94452;-55
2023/08/19 23:31:24;;;;;;;;;;;24.10;66.00;;;;;;10195385;28;94878;-55
2023/08/19 23:36:26;;;;;;;;;;;24.10;65.80;;;;;;10196661;28;92673;-55
2023/08/19 23:41:28;;;;;;;;;;;24.10;66.00;;;;;;10187602;28;93486;-56
2023/08/19 23:46:31;;;;;;;;;;;24.10;65.80;;;;;;10185989;28;94053;-56
2023/08/19 23:51:33;;;;;;;;;;;24.10;65.60;;;;;;10181049;28;96855;-55
2023/08/19 23:56:38;;;;;;;;;;;24.10;65.70;;;;;;10194003;28;116201;-55
